createdAt,value
2024-03-16T00:02:48.565Z,53.5
2024-03-16T00:08:19.030Z,53.5
2024-03-16T00:13:48.514Z,53.5
2024-03-16T00:19:19.402Z,53.5
2024-03-16T00:24:49.517Z,53.5
2024-03-16T00:30:20.310Z,54
2024-03-16T00:35:50.645Z,54
2024-03-16T00:41:20.144Z,54
2024-03-16T00:46:50.581Z,54
2024-03-16T00:52:21.073Z,54
2024-03-16T00:57:51.712Z,54
2024-03-16T01:03:22.157Z,54
2024-03-16T01:08:51.627Z,54
2024-03-16T01:14:22.106Z,54.5
2024-03-16T01:19:52.611Z,54.5
2024-03-16T01:25:23.212Z,54.5
2024-03-16T01:30:53.696Z,55
2024-03-16T01:36:24.237Z,55
2024-03-16T01:41:53.758Z,55
2024-03-16T01:47:24.234Z,55
2024-03-16T01:52:54.787Z,55
2024-03-16T01:58:25.265Z,54.5
2024-03-16T02:03:55.764Z,54.5
2024-03-16T02:09:26.478Z,55
2024-03-16T02:14:56.818Z,54.5
2024-03-16T02:20:27.394Z,54.5
2024-03-16T02:25:58.135Z,54.5
2024-03-16T02:31:28.588Z,55
2024-03-16T02:36:59.153Z,54.5
2024-03-16T02:42:29.736Z,55
2024-03-16T02:48:00.267Z,55
2024-03-16T02:53:30.692Z,54.5
2024-03-16T02:59:01.252Z,54.5
2024-03-16T03:10:01.255Z,54.5
2024-03-16T03:15:31.767Z,54.5
2024-03-16T03:21:02.199Z,54.5
2024-03-16T03:26:32.762Z,54.5
2024-03-16T03:32:03.278Z,54.5
2024-03-16T03:37:33.735Z,54.5
2024-03-16T03:43:04.443Z,54.5
2024-03-16T03:48:34.853Z,54.5
2024-03-16T03:54:05.335Z,54.5
2024-03-16T03:59:35.925Z,54.5
2024-03-16T04:05:06.408Z,54.5
2024-03-16T04:10:37.013Z,54.5
2024-03-16T04:21:38.342Z,54.5
2024-03-16T04:27:08.719Z,54.5
2024-03-16T04:32:39.266Z,54.5
2024-03-16T04:38:09.667Z,54.5
2024-03-16T04:43:40.274Z,54.5
2024-03-16T04:49:11.008Z,54.5
2024-03-16T04:54:40.382Z,54.5
2024-03-16T05:00:10.834Z,54.5
2024-03-16T05:05:41.337Z,55
2024-03-16T05:11:11.994Z,55
2024-03-16T05:16:42.525Z,55
2024-03-16T05:22:12.936Z,55
2024-03-16T05:27:43.908Z,55
2024-03-16T05:33:14.114Z,55
2024-03-16T05:38:44.621Z,55
2024-03-16T05:44:15.113Z,55
2024-03-16T05:49:45.586Z,55
2024-03-16T05:55:16.229Z,55
2024-03-16T06:00:46.706Z,55
2024-03-16T06:06:17.293Z,55
2024-03-16T06:11:47.774Z,54.5
2024-03-16T06:17:18.254Z,54
2024-03-16T06:22:48.810Z,54
2024-03-16T06:28:19.364Z,54
2024-03-16T06:33:49.829Z,53.5
2024-03-16T06:39:20.366Z,53.5
2024-03-16T06:44:50.839Z,53.5
2024-03-16T06:50:21.430Z,53.5
2024-03-16T06:55:51.883Z,53.5
2024-03-16T07:01:22.512Z,53.5
2024-03-16T07:06:53.019Z,53
2024-03-16T07:12:23.433Z,53
2024-03-16T07:17:53.941Z,53
2024-03-16T07:23:23.415Z,53
2024-03-16T07:28:53.887Z,53
2024-03-16T07:34:24.498Z,52.5
2024-03-16T07:39:55.041Z,52
2024-03-16T07:45:25.423Z,52
2024-03-16T07:50:54.906Z,51.5
2024-03-16T07:56:25.401Z,51.5
2024-03-16T08:01:56.070Z,51
2024-03-16T08:07:26.465Z,51
2024-03-16T08:12:57.012Z,50.5
2024-03-16T08:18:26.421Z,50.5
2024-03-16T08:23:56.897Z,50.5
2024-03-16T08:29:27.354Z,50
2024-03-16T08:34:58.031Z,50
2024-03-16T08:40:28.527Z,50
2024-03-16T08:45:59.279Z,50
2024-03-16T08:51:29.503Z,50.5
2024-03-16T08:56:59.989Z,50.5
2024-03-16T09:02:30.709Z,50.5
2024-03-16T09:08:01.183Z,50.5
2024-03-16T09:13:31.821Z,50.5
2024-03-16T09:19:02.321Z,50.5
2024-03-16T09:24:32.757Z,51
2024-03-16T09:30:02.238Z,51
2024-03-16T09:35:32.709Z,51
2024-03-16T09:41:03.265Z,51
2024-03-16T09:46:33.778Z,51
2024-03-16T09:52:04.429Z,51
2024-03-16T09:57:34.835Z,51
2024-03-16T10:03:05.436Z,51
2024-03-16T10:08:35.891Z,51
2024-03-16T10:14:06.374Z,51
2024-03-16T10:19:36.970Z,51
2024-03-16T10:25:07.631Z,51.5
2024-03-16T10:30:37.983Z,51.5
2024-03-16T10:36:08.527Z,51.5
2024-03-16T10:41:39.167Z,51.5
2024-03-16T10:47:09.640Z,51.5
2024-03-16T10:52:40.217Z,51.5
2024-03-16T10:58:10.680Z,51.5
2024-03-16T11:03:41.446Z,51.5
2024-03-16T11:09:11.906Z,51.5
2024-03-16T11:14:42.422Z,51.5
2024-03-16T11:20:13.061Z,51.5
2024-03-16T11:25:43.479Z,52
2024-03-16T11:31:12.954Z,51.5
2024-03-16T11:36:43.435Z,51.5
2024-03-16T11:42:13.974Z,51.5
2024-03-16T11:47:44.505Z,51.5
2024-03-16T11:53:14.957Z,51.5
2024-03-16T11:58:45.616Z,51.5
2024-03-16T12:04:14.988Z,51.5
2024-03-16T12:09:45.486Z,52
2024-03-16T12:15:15.960Z,52
2024-03-16T12:20:46.570Z,52
2024-03-16T12:26:17.044Z,52
2024-03-16T12:31:47.620Z,52
2024-03-16T12:37:18.078Z,52
2024-03-16T12:42:48.575Z,52
2024-03-16T12:48:19.196Z,52
2024-03-16T12:53:49.657Z,52
2024-03-16T12:59:20.269Z,52
2024-03-16T13:04:50.741Z,52
2024-03-16T13:10:21.275Z,52
2024-03-16T13:15:51.826Z,52
2024-03-16T13:21:22.310Z,52
2024-03-16T13:26:52.788Z,52
2024-03-16T13:32:23.421Z,52
2024-03-16T13:37:53.853Z,52
2024-03-16T13:43:24.403Z,52
2024-03-16T13:48:53.813Z,52
2024-03-16T13:54:24.290Z,52
2024-03-16T13:59:54.766Z,52
2024-03-16T14:05:24.289Z,52
2024-03-16T14:10:54.769Z,52
2024-03-16T14:16:25.562Z,52
2024-03-16T14:21:55.816Z,52
2024-03-16T14:27:26.507Z,52
2024-03-16T14:32:56.880Z,52
2024-03-16T14:38:27.436Z,52
2024-03-16T14:43:57.844Z,52
2024-03-16T14:49:27.387Z,52
2024-03-16T14:54:57.780Z,52
2024-03-16T15:00:28.280Z,52
2024-03-16T15:05:58.895Z,52
2024-03-16T15:11:29.389Z,52
2024-03-16T15:16:59.973Z,52
2024-03-16T15:22:30.642Z,52
2024-03-16T15:33:30.420Z,52
2024-03-16T15:39:02.430Z,52
2024-03-16T15:44:31.384Z,52
2024-03-16T15:50:02.147Z,52
2024-03-16T15:55:32.600Z,52
2024-03-16T16:01:03.069Z,52
2024-03-16T16:06:32.594Z,52
2024-03-16T16:12:03.041Z,52
2024-03-16T16:17:33.506Z,52
2024-03-16T16:23:04.099Z,52
2024-03-16T16:28:34.571Z,52
2024-03-16T16:39:34.576Z,52
2024-03-16T16:45:05.038Z,52
2024-03-16T16:50:35.691Z,52
2024-03-16T16:56:06.176Z,52
2024-03-16T17:01:36.757Z,52
2024-03-16T17:07:07.205Z,52
2024-03-16T17:12:37.801Z,52
2024-03-16T17:18:08.296Z,52
2024-03-16T17:23:38.765Z,52
2024-03-16T17:29:09.353Z,52
2024-03-16T17:34:39.835Z,52
2024-03-16T17:40:10.304Z,52
2024-03-16T17:45:39.794Z,52
2024-03-16T17:51:10.252Z,52
2024-03-16T17:56:39.731Z,51.5
2024-03-16T18:02:10.233Z,51.5
2024-03-16T18:07:40.678Z,51.5
2024-03-16T18:18:40.632Z,51.5
2024-03-16T18:24:11.135Z,51.5
2024-03-16T18:29:41.723Z,51.5
2024-03-16T18:35:12.217Z,51.5
2024-03-16T18:46:12.303Z,51.5
2024-03-16T18:51:42.783Z,51.5
2024-03-16T18:57:12.266Z,51.5
2024-03-16T19:02:51.497Z,51.5
2024-03-16T19:08:13.255Z,51.5
2024-03-16T19:13:43.850Z,51.5
2024-03-16T19:19:14.328Z,51.5
2024-03-16T19:24:44.797Z,51.5
2024-03-16T19:30:15.504Z,51.5
2024-03-16T19:35:45.995Z,51.5
2024-03-16T19:41:15.484Z,51.5
2024-03-16T19:46:45.919Z,51.5
2024-03-16T19:57:47.007Z,51.5
2024-03-16T20:03:17.503Z,51.5
2024-03-16T20:08:47.950Z,51.5
2024-03-16T20:14:18.587Z,51.5
2024-03-16T20:19:49.053Z,51.5
2024-03-16T20:25:19.522Z,52
2024-03-16T20:30:49.001Z,52
2024-03-16T20:36:19.507Z,52
2024-03-16T20:41:49.962Z,52
2024-03-16T20:47:20.537Z,52
2024-03-16T20:52:51.008Z,52
2024-03-16T20:58:21.625Z,52
2024-03-16T21:09:22.713Z,52
2024-03-16T21:14:53.165Z,52
2024-03-16T21:20:23.628Z,52
2024-03-16T21:25:54.261Z,52
2024-03-16T21:31:24.726Z,52.5
2024-03-16T21:36:55.279Z,53
2024-03-16T21:42:25.786Z,53
2024-03-16T21:47:56.258Z,53.5
2024-03-16T21:53:26.773Z,53.5
2024-03-16T21:58:57.406Z,53.5
2024-03-16T22:09:58.383Z,53.5
2024-03-16T22:15:27.816Z,53.5
2024-03-16T22:20:58.303Z,53.5
2024-03-16T22:26:28.783Z,53.5
2024-03-16T22:31:59.354Z,53.5
2024-03-16T22:37:29.972Z,53.5
2024-03-16T22:43:06.902Z,53.5
2024-03-16T22:48:31.041Z,53.5
2024-03-16T22:54:01.520Z,53.5
2024-03-16T22:59:31.010Z,53.5
2024-03-16T23:05:01.504Z,53.5
2024-03-16T23:10:31.970Z,53
2024-03-16T23:16:02.663Z,53.5
2024-03-16T23:21:33.153Z,53.5
2024-03-16T23:27:03.635Z,53.5
2024-03-16T23:32:34.273Z,54
2024-03-16T23:38:04.729Z,54
2024-03-16T23:43:34.467Z,54
2024-03-16T23:49:04.689Z,54
2024-03-16T23:54:35.201Z,54
